Time;durP1;ratioP1;P1;durP2;ratioP2;P2;SDS_P1;SDS_P2;PMS_P1;PMS_P2;Temp;Humidity;BMP_temperature;BMP_pressure;BME280_temperature;BME280_humidity;BME280_pressure;Samples;Min_cycle;Max_cycle;Signal;HPM_P1;HPM_P2
2023/10/23 00:00:34;;;;;;;;;5.67;5.67;;;;;18.37;100.00;100547.19;2062311;28;46308;-56
2023/10/23 00:01:38;;;;;;;;;6.00;6.00;;;;;18.37;100.00;100559.75;2063270;28;46171;-57
2023/10/23 00:02:38;;;;;;;;;8.00;6.25;;;;;18.37;100.00;100555.25;2069666;28;46301;-57
2023/10/23 00:03:40;;;;;;;;;4.00;4.00;;;;;18.38;100.00;100556.09;2062341;28;46366;-59
2023/10/23 00:04:41;;;;;;;;;5.75;5.00;;;;;18.38;100.00;100553.44;2094680;28;46963;-56
2023/10/23 00:05:41;;;;;;;;;6.00;6.00;;;;;18.36;100.00;100547.28;2090758;28;46734;-55
2023/10/23 00:06:41;;;;;;;;;6.00;6.00;;;;;18.35;100.00;100551.78;2067888;28;46511;-57
2023/10/23 00:07:42;;;;;;;;;6.67;6.67;;;;;18.37;100.00;100540.94;2054826;28;46694;-58
2023/10/23 00:08:42;;;;;;;;;6.33;6.33;;;;;18.36;100.00;100542.75;2062980;28;46603;-56
2023/10/23 00:09:43;;;;;;;;;9.00;9.00;;;;;18.35;100.00;100545.53;2063596;28;46502;-57
2023/10/23 00:10:44;;;;;;;;;8.00;6.00;;;;;18.21;100.00;100551.69;2062961;28;46292;-58
2023/10/23 00:11:45;;;;;;;;;7.25;6.25;;;;;18.30;100.00;100542.25;2063543;28;46523;-58
2023/10/23 00:12:45;;;;;;;;;7.00;6.00;;;;;18.35;100.00;100550.91;2062906;28;46320;-57
2023/10/23 00:13:45;;;;;;;;;7.00;7.00;;;;;18.24;100.00;100543.47;2062995;28;46502;-57
2023/10/23 00:14:46;;;;;;;;;9.00;7.00;;;;;18.22;100.00;100551.59;2062865;28;46316;-58
2023/10/23 00:15:46;;;;;;;;;6.00;6.00;;;;;18.21;100.00;100539.13;2062934;28;46368;-58
2023/10/23 00:16:46;;;;;;;;;6.00;6.00;;;;;18.21;100.00;100547.19;2062036;28;46521;-58
2023/10/23 00:17:47;;;;;;;;;9.33;6.00;;;;;18.22;100.00;100540.00;2063079;28;46694;-57
2023/10/23 00:18:54;;;;;;;;;7.00;7.00;;;;;18.22;100.00;100548.06;2070400;28;46224;-57
2023/10/23 00:19:54;;;;;;;;;6.75;6.50;;;;;18.21;100.00;100546.31;2069752;28;46843;-58
2023/10/23 00:20:55;;;;;;;;;6.00;3.67;;;;;18.21;100.00;100551.69;2061144;28;47177;-58
2023/10/23 00:21:56;;;;;;;;;9.25;6.00;;;;;18.19;100.00;100550.91;2064150;28;46945;-57
2023/10/23 00:22:56;;;;;;;;;7.67;7.00;;;;;18.17;100.00;100544.78;2070579;28;46630;-55
2023/10/23 00:23:56;;;;;;;;;8.67;8.00;;;;;18.16;100.00;100549.25;2072917;28;46592;-57
2023/10/23 00:24:57;;;;;;;;;6.00;6.00;;;;;18.15;100.00;100547.50;2073863;28;46810;-57
2023/10/23 00:25:57;;;;;;;;;5.00;5.00;;;;;18.16;100.00;100549.25;2105109;28;45575;-58
2023/10/23 00:26:57;;;;;;;;;5.00;5.00;;;;;18.15;100.00;100546.66;2086914;28;46665;-57
2023/10/23 00:27:58;;;;;;;;;7.00;7.00;;;;;18.13;100.00;100545.88;2070308;28;46332;-59
2023/10/23 00:29:00;;;;;;;;;8.33;5.67;;;;;18.10;100.00;100541.53;2101518;28;47125;-58
2023/10/23 00:30:00;;;;;;;;;10.75;7.75;;;;;18.09;100.00;100542.50;2093445;28;46577;-58
2023/10/23 00:31:01;;;;;;;;;6.00;6.00;;;;;18.08;100.00;100539.91;2070610;28;46715;-59
2023/10/23 00:32:01;;;;;;;;;8.00;8.00;;;;;18.06;100.00;100544.50;2071729;28;46231;-57
2023/10/23 00:33:01;;;;;;;;;8.00;7.67;;;;;18.05;100.00;100546.31;2066281;28;45618;-57
2023/10/23 00:34:02;;;;;;;;;6.00;6.00;;;;;18.03;100.00;100537.44;2070708;28;46511;-58
2023/10/23 00:35:03;;;;;;;;;9.00;9.00;;;;;18.03;100.00;100534.78;2072879;28;46704;-58
2023/10/23 00:36:03;;;;;;;;;11.33;9.00;;;;;18.03;100.00;100550.88;2063566;28;46162;-55
2023/10/23 00:37:03;;;;;;;;;9.00;8.67;;;;;18.02;100.00;100538.41;2061703;28;46371;-58
2023/10/23 00:38:04;;;;;;;;;11.00;8.00;;;;;18.02;100.00;100545.59;2077775;28;46338;-57
2023/10/23 00:39:04;;;;;;;;;7.00;7.00;;;;;18.03;100.00;100536.59;2073704;28;46221;-57
2023/10/23 00:40:05;;;;;;;;;9.00;8.00;;;;;18.02;100.00;100535.72;2067964;28;46586;-57
2023/10/23 00:41:06;;;;;;;;;9.00;8.00;;;;;18.01;100.00;100534.00;2105798;28;46378;-57
2023/10/23 00:42:06;;;;;;;;;8.33;8.00;;;;;18.01;100.00;100536.69;2068743;28;46645;-58
2023/10/23 00:43:23;;;;;;;;;13.25;9.00;;;;;18.01;100.00;100533.13;2065100;28;46481;-58
2023/10/23 00:44:23;;;;;;;;;16.00;11.25;;;;;17.98;100.00;100534.16;2060625;28;46688;-56
2023/10/23 00:45:24;;;;;;;;;9.67;9.67;;;;;17.97;100.00;100526.19;2080626;28;47246;-59
2023/10/23 00:46:28;;;;;;;;;9.67;9.67;;;;;17.93;100.00;100523.69;2078398;28;46962;-58
2023/10/23 00:47:28;;;;;;;;;11.50;10.25;;;;;17.92;100.00;100531.84;2054563;28;47005;-56
2023/10/23 00:48:29;;;;;;;;;14.67;8.00;;;;;17.91;100.00;100530.06;2082820;27;46687;-58
2023/10/23 00:49:29;;;;;;;;;10.33;8.67;;;;;17.90;100.00;100522.97;2080963;28;46902;-56
2023/10/23 00:50:29;;;;;;;;;8.67;8.67;;;;;17.90;100.00;100529.22;2099060;28;46277;-55
2023/10/23 00:51:31;;;;;;;;;10.33;9.67;;;;;17.90;100.00;100525.66;2080317;28;46043;-56
2023/10/23 00:52:32;;;;;;;;;10.00;10.00;;;;;17.90;100.00;100520.28;2106359;27;46665;-57
2023/10/23 00:53:37;;;;;;;;;13.67;10.00;;;;;17.89;100.00;100522.09;2092230;28;46079;-57
2023/10/23 00:54:38;;;;;;;;;11.00;8.50;;;;;17.89;100.00;100518.56;2094051;27;46925;-58
2023/10/23 00:55:39;;;;;;;;;9.00;9.00;;;;;17.89;100.00;100521.25;2105849;28;46556;-59
2023/10/23 00:56:41;;;;;;;;;8.00;8.00;;;;;17.88;100.00;100523.06;2094100;28;46930;-55
2023/10/23 00:57:41;;;;;;;;;10.25;9.00;;;;;17.86;100.00;100522.28;2094688;28;46606;-57
2023/10/23 00:58:45;;;;;;;;;10.00;10.00;;;;;17.88;100.00;100519.50;2104068;28;46786;-58
2023/10/23 00:59:45;;;;;;;;;10.25;10.00;;;;;17.88;100.00;100522.19;2097943;27;46369;-56
2023/10/23 01:00:48;;;;;;;;;9.00;9.00;;;;;17.89;100.00;100521.25;2104077;28;46898;-58
2023/10/23 01:01:48;;;;;;;;;10.00;8.75;;;;;17.86;100.00;100526.78;2087192;28;46356;-55
2023/10/23 01:02:50;;;;;;;;;13.00;12.00;;;;;17.85;100.00;100522.38;2079854;28;46557;-57
2023/10/23 01:03:50;;;;;;;;;12.00;11.75;;;;;17.84;100.00;100531.38;2105540;28;47050;-58
2023/10/23 01:04:51;;;;;;;;;12.00;9.00;;;;;17.84;100.00;100526.88;2099304;28;46269;-57
2023/10/23 01:05:52;;;;;;;;;10.75;10.75;;;;;17.86;100.00;100532.16;2080601;28;46439;-56
2023/10/23 01:06:52;;;;;;;;;8.00;8.00;;;;;17.85;100.00;100530.44;2071149;28;46671;-57
2023/10/23 01:07:52;;;;;;;;;11.33;9.00;;;;;17.84;100.00;100524.19;2088427;28;46367;-57
2023/10/23 01:08:53;;;;;;;;;10.33;8.00;;;;;17.83;100.00;100521.59;2103733;28;46245;-54
2023/10/23 01:09:54;;;;;;;;;8.00;8.00;;;;;17.81;100.00;100527.06;2102542;28;46386;-57
2023/10/23 01:10:55;;;;;;;;;10.00;6.67;;;;;17.80;100.00;100521.78;2100200;28;46554;-58
2023/10/23 01:11:55;;;;;;;;;8.75;8.00;;;;;17.79;100.00;100517.34;2105240;27;46981;-58
2023/10/23 01:12:56;;;;;;;;;7.00;7.00;;;;;17.80;100.00;100519.09;2099992;28;46846;-57
2023/10/23 01:13:57;;;;;;;;;8.33;7.67;;;;;17.78;100.00;100524.50;2095503;27;46639;-57
2023/10/23 01:14:57;;;;;;;;;7.00;7.00;;;;;17.78;100.00;100519.13;2105945;28;46282;-57
2023/10/23 01:15:58;;;;;;;;;7.67;7.67;;;;;17.78;100.00;100521.81;2076109;28;46749;-58
2023/10/23 01:16:58;;;;;;;;;6.00;5.00;;;;;17.77;100.00;100522.78;2069930;28;46810;-58
2023/10/23 01:17:59;;;;;;;;;6.67;5.67;;;;;17.76;100.00;100512.13;2097630;28;46283;-56
2023/10/23 01:19:00;;;;;;;;;7.50;5.50;;;;;17.76;100.00;100515.69;2079388;28;46576;-57
2023/10/23 01:20:00;;;;;;;;;6.00;6.00;;;;;17.77;100.00;100513.84;2077957;28;46346;-58
2023/10/23 01:21:01;;;;;;;;;5.33;5.33;;;;;17.77;100.00;100513.84;2096049;28;46289;-55
2023/10/23 01:22:01;;;;;;;;;5.67;5.67;;;;;17.77;100.00;100509.34;2078802;28;46587;-57
2023/10/23 01:23:02;;;;;;;;;10.00;7.67;;;;;17.78;100.00;100513.78;2105240;28;46664;-57
2023/10/23 01:24:07;;;;;;;;;2.75;2.75;;;;;17.80;100.00;100503.84;2102119;28;46730;-56
2023/10/23 01:25:15;;;;;;;;;7.50;6.00;;;;;17.82;100.00;100506.44;2102861;28;46705;-56
2023/10/23 01:26:15;;;;;;;;;7.25;6.25;;;;;17.80;100.00;100497.63;2105679;28;46868;-56
2023/10/23 01:27:15;;;;;;;;;9.33;8.00;;;;;17.81;100.00;100502.03;2083841;28;45814;-56
2023/10/23 01:28:16;;;;;;;;;7.33;7.00;;;;;17.80;100.00;100493.09;2071162;28;46616;-59
2023/10/23 01:29:16;;;;;;;;;8.33;7.00;;;;;17.79;100.00;100495.88;2072007;28;46848;-56
2023/10/23 01:30:17;;;;;;;;;8.33;8.33;;;;;17.80;100.00;100502.97;2071584;28;46607;-58
2023/10/23 01:31:17;;;;;;;;;9.67;9.67;;;;;17.80;100.00;100498.47;2070611;28;46678;-56
2023/10/23 01:32:17;;;;;;;;;9.33;8.67;;;;;17.65;100.00;100497.44;2067330;28;46213;-53
2023/10/23 01:33:18;;;;;;;;;8.00;8.00;;;;;17.80;100.00;100489.56;2063138;28;46197;-58
2023/10/23 01:34:18;;;;;;;;;11.00;10.33;;;;;17.81;100.00;100493.97;2071225;28;46517;-55
2023/10/23 01:35:18;;;;;;;;;7.67;7.00;;;;;17.80;100.00;100487.75;2070869;28;46207;-56
2023/10/23 01:36:19;;;;;;;;;9.00;9.00;;;;;17.64;100.00;100489.47;2062510;28;46366;-59
2023/10/23 01:37:19;;;;;;;;;7.00;7.00;;;;;17.77;100.00;100492.38;2053221;28;46522;-57
2023/10/23 01:38:19;;;;;;;;;6.00;6.00;;;;;17.77;100.00;100487.88;2053783;28;46347;-56
2023/10/23 01:39:20;;;;;;;;;6.33;5.00;;;;;17.78;100.00;100491.44;2062004;28;46674;-58
2023/10/23 01:40:20;;;;;;;;;7.67;6.67;;;;;17.75;100.00;100487.09;2062575;28;46612;-56
2023/10/23 01:41:20;;;;;;;;;5.00;4.67;;;;;17.73;100.00;100486.31;2063172;28;46873;-56
2023/10/23 01:42:21;;;;;;;;;6.00;6.00;;;;;17.73;100.00;100482.78;2057877;28;46295;-57
2023/10/23 01:43:21;;;;;;;;;5.33;5.33;;;;;17.71;100.00;100490.91;2062614;28;46231;-57
2023/10/23 01:44:21;;;;;;;;;8.00;7.33;;;;;17.70;100.00;100483.81;2062421;28;46687;-56
2023/10/23 01:45:22;;;;;;;;;6.33;6.00;;;;;17.69;100.00;100483.91;2054647;28;46754;-57
2023/10/23 01:46:22;;;;;;;;;7.00;7.00;;;;;17.63;100.00;100475.19;2054721;28;46254;-54
2023/10/23 01:47:23;;;;;;;;;7.67;5.33;;;;;17.66;100.00;100479.56;2054978;28;46833;-56
2023/10/23 01:48:23;;;;;;;;;9.25;8.00;;;;;17.63;100.00;100485.06;2054804;28;46441;-56
2023/10/23 01:49:24;;;;;;;;;7.67;7.67;;;;;17.63;100.00;100482.38;2059579;28;46231;-56
2023/10/23 01:50:24;;;;;;;;;6.00;5.67;;;;;17.65;100.00;100483.16;2063135;28;46081;-56
2023/10/23 01:51:24;;;;;;;;;6.33;6.33;;;;;17.63;100.00;100482.38;2061089;28;46851;-57
2023/10/23 01:52:25;;;;;;;;;5.33;5.00;;;;;17.63;100.00;100485.06;2062856;28;46631;-58
2023/10/23 01:53:25;;;;;;;;;6.00;6.00;;;;;17.61;100.00;100479.78;2060160;28;46363;-57
2023/10/23 01:54:25;;;;;;;;;8.67;6.33;;;;;17.60;100.00;100486.09;2062998;28;46831;-57
2023/10/23 01:55:26;;;;;;;;;5.33;5.33;;;;;17.58;100.00;100479.94;2062719;28;46160;-58
2023/10/23 01:56:26;;;;;;;;;4.67;4.67;;;;;17.56;100.00;100484.53;2062649;28;46910;-58
2023/10/23 01:57:27;;;;;;;;;6.67;6.33;;;;;17.57;100.00;100478.22;2062910;28;46648;-58
2023/10/23 01:58:27;;;;;;;;;7.00;7.00;;;;;17.57;100.00;100480.03;2063307;28;46219;-59
2023/10/23 01:59:28;;;;;;;;;7.33;7.33;;;;;17.57;100.00;100478.22;2062392;28;46550;-57
2023/10/23 02:00:28;;;;;;;;;6.00;6.00;;;;;17.49;100.00;100472.41;2063165;28;45902;-56
2023/10/23 02:01:28;;;;;;;;;6.67;5.67;;;;;17.45;100.00;100470.84;2063595;28;46440;-55
2023/10/23 02:02:29;;;;;;;;;5.00;5.00;;;;;17.45;100.00;100465.47;2071240;28;47115;-57
2023/10/23 02:03:31;;;;;;;;;5.75;5.75;;;;;17.53;100.00;100465.94;2064859;28;46686;-57
2023/10/23 02:04:32;;;;;;;;;5.00;5.00;;;;;17.54;100.00;100461.44;2062278;28;46430;-56
2023/10/23 02:05:32;;;;;;;;;7.00;5.33;;;;;17.54;100.00;100454.25;2062925;28;46403;-58
2023/10/23 02:06:33;;;;;;;;;4.67;4.67;;;;;17.52;100.00;100455.25;2061535;28;46280;-55
2023/10/23 02:07:33;;;;;;;;;5.67;4.67;;;;;17.55;100.00;100463.16;2063060;28;46137;-58
2023/10/23 02:08:33;;;;;;;;;5.33;5.33;;;;;17.57;100.00;100456.75;2062817;28;46191;-56
2023/10/23 02:09:33;;;;;;;;;6.33;6.33;;;;;17.57;100.00;100459.44;2062757;28;47071;-59
2023/10/23 02:10:34;;;;;;;;;9.00;5.67;;;;;17.58;100.00;100465.69;2062533;28;46473;-58
2023/10/23 02:11:34;;;;;;;;;5.67;5.67;;;;;17.56;100.00;100463.06;2063275;28;46250;-58
2023/10/23 02:12:34;;;;;;;;;4.00;4.00;;;;;17.55;100.00;100461.34;2053792;28;46716;-58
2023/10/23 02:13:35;;;;;;;;;4.00;4.00;;;;;17.49;100.00;100458.97;2045659;28;46686;-56
2023/10/23 02:14:35;;;;;;;;;8.00;5.67;;;;;17.45;100.00;100462.78;2058499;28;46759;-56
2023/10/23 02:15:35;;;;;;;;;4.67;4.67;;;;;17.50;100.00;100459.84;2062533;28;46092;-57
2023/10/23 02:16:36;;;;;;;;;7.00;5.00;;;;;17.53;100.00;100457.88;2062036;28;46267;-56
2023/10/23 02:17:38;;;;;;;;;10.00;7.00;;;;;17.50;100.00;100462.53;2072022;28;46145;-57
2023/10/23 02:18:38;;;;;;;;;7.50;3.50;;;;;17.41;100.00;100458.56;2064040;28;46803;-57
2023/10/23 02:19:38;;;;;;;;;4.00;4.00;;;;;17.52;100.00;100466.00;2084150;28;46412;-57
2023/10/23 02:20:40;;;;;;;;;1.75;0.75;;;;;17.55;100.00;100465.84;2091902;28;46811;-59
2023/10/23 02:21:40;;;;;;;;;5.00;4.00;;;;;17.43;100.00;100466.50;2104911;28;46394;-58
2023/10/23 02:22:40;;;;;;;;;7.67;5.33;;;;;17.54;100.00;100464.13;2089237;28;46507;-53
2023/10/23 02:23:41;;;;;;;;;4.00;4.00;;;;;17.55;100.00;100466.72;2064233;28;46502;-56
2023/10/23 02:24:41;;;;;;;;;5.00;5.00;;;;;17.54;100.00;100464.13;2096362;28;46238;-56
2023/10/23 02:25:42;;;;;;;;;5.67;4.67;;;;;17.52;100.00;100466.00;2099761;28;46548;-58
2023/10/23 02:26:42;;;;;;;;;5.33;5.33;;;;;17.50;100.00;100471.44;2102040;28;46427;-58
2023/10/23 02:27:43;;;;;;;;;1.33;1.33;;;;;17.49;100.00;100467.03;2093507;28;47106;-59
2023/10/23 02:28:43;;;;;;;;;3.00;3.00;;;;;17.48;100.00;100467.97;2085658;28;47074;-58
2023/10/23 02:29:43;;;;;;;;;2.00;2.00;;;;;17.46;100.00;100453.78;2104538;28;46495;-56
2023/10/23 02:30:44;;;;;;;;;5.00;4.33;;;;;17.49;100.00;100455.44;2071473;28;46727;-57
2023/10/23 02:31:44;;;;;;;;;3.00;3.00;;;;;17.50;100.00;100451.78;2065272;28;45694;-57
2023/10/23 02:32:45;;;;;;;;;3.00;3.00;;;;;17.48;100.00;100454.56;2100424;28;46560;-58
2023/10/23 02:33:45;;;;;;;;;3.50;2.50;;;;;17.45;100.00;100441.31;2088775;28;46181;-58
2023/10/23 02:34:47;;;;;;;;;4.67;2.67;;;;;17.48;100.00;100454.56;2100566;28;46111;-58
2023/10/23 02:35:48;;;;;;;;;4.75;3.75;;;;;17.47;100.00;100450.16;2068786;28;46421;-58
2023/10/23 02:36:48;;;;;;;;;4.33;4.00;;;;;17.48;100.00;100449.19;2067594;28;46294;-56
2023/10/23 02:37:49;;;;;;;;;3.33;2.33;;;;;17.47;100.00;100449.28;2104973;28;45897;-56
2023/10/23 02:38:50;;;;;;;;;3.50;2.25;;;;;17.45;100.00;100444.00;2075539;28;46370;-57
2023/10/23 02:39:51;;;;;;;;;2.50;2.50;;;;;17.43;100.00;100445.91;2064743;28;46564;-58
2023/10/23 02:40:53;;;;;;;;;2.75;2.25;;;;;17.45;100.00;100451.19;2099270;28;46729;-58
2023/10/23 02:41:53;;;;;;;;;3.75;3.25;;;;;17.44;100.00;100446.78;2075921;28;46220;-55
2023/10/23 02:42:53;;;;;;;;;3.00;3.00;;;;;17.44;100.00;100446.78;2063506;28;46239;-57
2023/10/23 02:43:54;;;;;;;;;4.33;4.33;;;;;17.43;100.00;100445.91;2092864;27;46269;-58
2023/10/23 02:44:54;;;;;;;;;4.33;3.33;;;;;17.44;100.00;100439.59;2089621;28;46014;-55
2023/10/23 02:45:59;;;;;;;;;3.00;3.00;;;;;17.45;100.00;100435.09;2105113;28;47148;-57
2023/10/23 02:46:59;;;;;;;;;3.75;2.50;;;;;17.43;100.00;100443.22;2060294;28;46319;-55
2023/10/23 02:48:00;;;;;;;;;3.00;3.00;;;;;17.43;100.00;100448.59;2065102;28;45395;-57
2023/10/23 02:49:00;;;;;;;;;5.00;4.00;;;;;17.43;100.00;100439.69;2101881;28;46348;-56
2023/10/23 02:50:00;;;;;;;;;3.00;3.00;;;;;17.43;100.00;100445.91;2089736;28;46037;-57
2023/10/23 02:51:01;;;;;;;;;4.33;4.33;;;;;17.43;100.00;100439.69;2088408;28;46319;-55
2023/10/23 02:52:01;;;;;;;;;4.00;4.00;;;;;17.43;100.00;100443.22;2094924;28;46650;-54
2023/10/23 02:53:02;;;;;;;;;5.67;5.67;;;;;17.41;100.00;100439.78;2087972;28;47149;-56
2023/10/23 02:54:02;;;;;;;;;4.00;3.00;;;;;17.42;100.00;100443.31;2090163;28;46499;-55
2023/10/23 02:55:04;;;;;;;;;4.00;4.00;;;;;17.42;100.00;100437.94;2085934;28;47315;-58
2023/10/23 02:56:10;;;;;;;;;3.00;3.00;;;;;17.40;100.00;100438.00;2093593;27;46829;-56
2023/10/23 02:57:10;;;;;;;;;5.00;4.25;;;;;17.38;100.00;100434.56;2070369;28;46370;-54
2023/10/23 02:58:11;;;;;;;;;3.00;3.00;;;;;17.40;100.00;100437.16;2066943;28;46122;-56
2023/10/23 02:59:11;;;;;;;;;5.00;3.00;;;;;17.38;100.00;100437.22;2062349;28;46221;-58
2023/10/23 03:00:12;;;;;;;;;9.00;6.00;;;;;17.39;100.00;100430.03;2054838;28;46219;-56
2023/10/23 03:01:20;;;;;;;;;4.00;3.75;;;;;17.39;100.00;100430.03;2095446;28;46508;-57
2023/10/23 03:02:21;;;;;;;;;4.75;4.00;;;;;17.38;100.00;100428.31;2098294;28;47015;-54
2023/10/23 03:03:21;;;;;;;;;4.00;4.00;;;;;17.36;100.00;100421.22;2062756;28;46454;-55
2023/10/23 03:04:21;;;;;;;;;4.00;4.00;;;;;17.38;100.00;100429.19;2062492;28;46679;-58
2023/10/23 03:05:22;;;;;;;;;5.67;5.67;;;;;17.34;100.00;100428.50;2061323;28;46417;-56
2023/10/23 03:06:23;;;;;;;;;5.00;4.00;;;;;17.32;100.00;100432.22;2065380;28;46132;-57
2023/10/23 03:07:23;;;;;;;;;5.25;4.00;;;;;17.33;100.00;100428.59;2068673;28;46480;-57
2023/10/23 03:08:23;;;;;;;;;3.33;3.33;;;;;17.33;100.00;100431.25;2062822;28;46719;-60
2023/10/23 03:09:24;;;;;;;;;3.67;3.67;;;;;17.30;100.00;100428.75;2062390;28;46654;-58
2023/10/23 03:10:24;;;;;;;;;6.00;6.00;;;;;17.21;100.00;100429.25;2061143;28;46397;-57
2023/10/23 03:11:25;;;;;;;;;3.33;3.33;;;;;17.29;100.00;100433.25;2057011;28;46133;-58
2023/10/23 03:12:26;;;;;;;;;3.75;3.00;;;;;17.28;100.00;100425.28;2065349;28;46485;-57
2023/10/23 03:13:27;;;;;;;;;5.00;5.00;;;;;17.29;100.00;100427.03;2070546;28;46022;-57
2023/10/23 03:14:27;;;;;;;;;4.33;4.33;;;;;17.29;100.00;100424.34;2055695;28;46217;-57
2023/10/23 03:15:27;;;;;;;;;4.67;4.67;;;;;17.28;100.00;100428.84;2054411;28;46981;-57
2023/10/23 03:16:29;;;;;;;;;6.00;4.67;;;;;17.28;100.00;100428.84;2054275;28;46655;-57
2023/10/23 03:17:30;;;;;;;;;3.00;3.00;;;;;17.28;100.00;100431.53;2059815;28;46672;-59
2023/10/23 03:18:30;;;;;;;;;6.25;4.25;;;;;17.26;100.00;100430.72;2061948;28;46024;-55
2023/10/23 03:19:31;;;;;;;;;5.00;5.00;;;;;17.25;100.00;100426.31;2054168;28;46308;-60
2023/10/23 03:20:31;;;;;;;;;5.00;4.33;;;;;17.25;100.00;100428.97;2054527;28;46504;-56
2023/10/23 03:21:32;;;;;;;;;6.00;4.67;;;;;17.24;100.00;100427.25;2054377;28;46471;-60
2023/10/23 03:22:32;;;;;;;;;5.00;5.00;;;;;17.24;100.00;100427.25;2054201;28;46671;-58
2023/10/23 03:23:33;;;;;;;;;5.00;5.00;;;;;17.24;100.00;100421.88;2054363;28;46650;-58
2023/10/23 03:24:33;;;;;;;;;5.67;4.67;;;;;17.26;100.00;100421.81;2054276;28;46324;-56
2023/10/23 03:25:33;;;;;;;;;3.67;3.67;;;;;17.25;100.00;100422.75;2054541;28;46446;-57
2023/10/23 03:26:34;;;;;;;;;4.00;4.00;;;;;17.24;100.00;100421.88;2054136;28;46730;-57
2023/10/23 03:27:34;;;;;;;;;4.33;3.33;;;;;17.23;100.00;100412.13;2054068;28;46128;-57
2023/10/23 03:28:35;;;;;;;;;5.00;4.00;;;;;17.25;100.00;100410.22;2058635;28;46405;-59
2023/10/23 03:29:35;;;;;;;;;2.67;2.67;;;;;17.24;100.00;100410.28;2062507;28;46280;-57
2023/10/23 03:30:35;;;;;;;;;2.67;2.67;;;;;17.23;100.00;100404.06;2062393;28;46267;-58
2023/10/23 03:31:36;;;;;;;;;2.33;2.33;;;;;17.23;100.00;100409.44;2061579;28;46610;-57
2023/10/23 03:32:36;;;;;;;;;6.00;6.00;;;;;17.22;100.00;100406.84;2062503;28;46677;-58
2023/10/23 03:33:37;;;;;;;;;3.00;3.00;;;;;17.21;100.00;100410.47;2062307;28;46388;-56
2023/10/23 03:34:37;;;;;;;;;4.00;4.00;;;;;17.20;100.00;100408.75;2061702;28;46964;-58
2023/10/23 03:35:42;;;;;;;;;2.00;2.00;;;;;17.20;100.00;100409.59;2061758;28;46679;-57
2023/10/23 03:36:44;;;;;;;;;4.75;4.00;;;;;17.19;100.00;100402.50;2066971;28;46387;-57
2023/10/23 03:37:44;;;;;;;;;4.25;3.75;;;;;17.17;100.00;100408.91;2103050;28;46673;-56
2023/10/23 03:38:44;;;;;;;;;5.67;5.67;;;;;17.17;100.00;100409.78;2085186;28;46243;-56
2023/10/23 03:39:45;;;;;;;;;3.67;2.33;;;;;17.18;100.00;100406.16;2091946;28;46792;-56
2023/10/23 03:40:59;;;;;;;;;4.33;4.33;;;;;17.19;100.00;100402.50;2092976;28;46312;-57
2023/10/23 03:41:59;;;;;;;;;2.75;2.25;;;;;17.19;100.00;100393.59;2070785;27;46338;-57
2023/10/23 03:43:00;;;;;;;;;2.00;2.00;;;;;17.19;100.00;100402.50;2063048;28;46227;-57
2023/10/23 03:44:02;;;;;;;;;1.67;1.67;;;;;17.16;100.00;100400.00;2070015;28;45846;-56
2023/10/23 03:45:03;;;;;;;;;3.00;3.00;;;;;17.15;100.00;100406.31;2072332;28;46897;-55
2023/10/23 03:46:04;;;;;;;;;4.25;2.50;;;;;17.15;100.00;100405.41;2064949;28;46270;-57
2023/10/23 03:47:04;;;;;;;;;1.67;1.67;;;;;17.14;100.00;100398.31;2068411;28;46693;-57
2023/10/23 03:48:05;;;;;;;;;2.00;2.00;;;;;17.15;100.00;100397.38;2071176;28;45257;-56
2023/10/23 03:49:05;;;;;;;;;3.00;2.00;;;;;17.16;100.00;100401.81;2059664;28;46725;-57
2023/10/23 03:50:06;;;;;;;;;2.00;2.00;;;;;17.15;100.00;100400.94;2073173;28;46197;-58
2023/10/23 03:51:06;;;;;;;;;2.67;2.67;;;;;17.14;100.00;100396.50;2075584;28;46789;-58
2023/10/23 03:52:07;;;;;;;;;5.00;2.00;;;;;17.15;100.00;100400.94;2086433;28;46650;-55
2023/10/23 03:53:07;;;;;;;;;1.67;1.33;;;;;17.13;100.00;100396.59;2096856;28;46681;-56
2023/10/23 03:54:07;;;;;;;;;1.67;1.67;;;;;17.12;100.00;100390.38;2106487;28;46659;-56
2023/10/23 03:55:08;;;;;;;;;2.00;2.00;;;;;17.14;100.00;100391.16;2105755;28;46561;-58
2023/10/23 03:56:08;;;;;;;;;2.33;2.33;;;;;17.14;100.00;100387.59;2106930;28;46420;-58
2023/10/23 03:57:09;;;;;;;;;1.33;1.33;;;;;17.14;100.00;100391.16;2105758;28;46726;-58
2023/10/23 03:58:09;;;;;;;;;2.00;2.00;;;;;17.14;100.00;100384.91;2106089;28;46247;-57
2023/10/23 03:59:09;;;;;;;;;4.67;2.00;;;;;17.15;100.00;100384.88;2105965;28;46482;-55
2023/10/23 04:00:10;;;;;;;;;3.67;2.33;;;;;17.15;100.00;100378.59;2105930;28;46348;-58
2023/10/23 04:01:13;;;;;;;;;2.50;2.50;;;;;17.16;100.00;100381.22;2095767;28;46811;-59
2023/10/23 04:02:14;;;;;;;;;1.75;1.75;;;;;17.15;100.00;100378.59;2097310;28;46680;-58
2023/10/23 04:03:14;;;;;;;;;1.67;1.67;;;;;17.15;100.00;100374.13;2087507;28;46210;-59
2023/10/23 04:04:14;;;;;;;;;2.00;0.00;;;;;17.16;100.00;100375.00;2063918;28;47295;-56
2023/10/23 04:05:15;;;;;;;;;1.33;1.33;;;;;17.16;100.00;100373.19;2102241;28;46628;-58
2023/10/23 04:06:15;;;;;;;;;4.33;3.33;;;;;17.16;100.00;100366.97;2069383;28;46171;-55
2023/10/23 04:07:15;;;;;;;;;2.33;2.33;;;;;17.17;100.00;100372.22;2072216;28;46155;-57
2023/10/23 04:08:16;;;;;;;;;0.33;0.33;;;;;17.17;100.00;100366.00;2097450;28;46393;-60
2023/10/23 04:09:16;;;;;;;;;2.33;2.33;;;;;17.16;100.00;100366.97;2105315;27;46574;-57
2023/10/23 04:10:16;;;;;;;;;1.00;1.00;;;;;17.15;100.00;100367.88;2106463;28;46448;-58
2023/10/23 04:11:17;;;;;;;;;1.00;1.00;;;;;17.15;100.00;100367.88;2105076;28;46322;-55
2023/10/23 04:12:17;;;;;;;;;1.00;1.00;;;;;17.15;100.00;100354.47;2105898;28;46435;-56
2023/10/23 04:13:17;;;;;;;;;2.67;1.67;;;;;17.15;100.00;100354.47;2104399;28;46293;-54
2023/10/23 04:14:18;;;;;;;;;1.67;1.00;;;;;17.16;100.00;100359.78;2104975;28;46406;-56
2023/10/23 04:15:18;;;;;;;;;4.00;2.67;;;;;17.17;100.00;100360.66;2106603;27;46272;-58
2023/10/23 04:16:18;;;;;;;;;3.33;2.33;;;;;17.17;100.00;100360.66;2105066;28;46206;-58
2023/10/23 04:17:19;;;;;;;;;2.33;2.33;;;;;17.16;100.00;100356.22;2089371;28;46834;-58
2023/10/23 04:18:19;;;;;;;;;3.00;3.00;;;;;17.15;100.00;100357.16;2086360;28;46321;-58
2023/10/23 04:19:19;;;;;;;;;2.67;2.67;;;;;17.15;100.00;100363.41;2075401;28;46330;-56
2023/10/23 04:20:20;;;;;;;;;2.00;2.00;;;;;17.16;100.00;100358.91;2058579;28;46181;-56
2023/10/23 04:21:20;;;;;;;;;4.67;3.67;;;;;17.15;100.00;100354.47;2055151;28;46899;-58
2023/10/23 04:22:21;;;;;;;;;2.67;2.67;;;;;17.00;100.00;100350.81;2054907;28;46873;-57
2023/10/23 04:23:21;;;;;;;;;1.67;1.67;;;;;17.13;100.00;100356.38;2062811;28;46651;-55
2023/10/23 04:24:21;;;;;;;;;3.33;2.67;;;;;17.12;100.00;100347.47;2063293;28;46773;-57
2023/10/23 04:25:22;;;;;;;;;1.00;1.00;;;;;17.12;100.00;100357.31;2063596;28;46442;-57
2023/10/23 04:26:22;;;;;;;;;3.67;2.33;;;;;17.13;100.00;100359.06;2063269;28;46322;-56
2023/10/23 04:27:22;;;;;;;;;2.00;2.00;;;;;17.10;100.00;100357.41;2063559;28;45937;-57
2023/10/23 04:28:23;;;;;;;;;0.67;0.33;;;;;16.88;100.00;100352.34;2063886;28;46973;-57
2023/10/23 04:29:23;;;;;;;;;1.67;1.67;;;;;16.96;100.00;100347.44;2063389;28;46915;-56
2023/10/23 04:30:24;;;;;;;;;1.00;1.00;;;;;17.10;100.00;100353.88;2063767;28;46647;-57
2023/10/23 04:31:24;;;;;;;;;2.67;2.67;;;;;17.09;100.00;100354.81;2061495;28;46537;-57
2023/10/23 04:32:24;;;;;;;;;4.00;2.33;;;;;17.11;100.00;100347.56;2056747;28;46474;-56
2023/10/23 04:33:25;;;;;;;;;3.00;2.00;;;;;17.10;100.00;100349.38;2063396;28;46439;-58
2023/10/23 04:34:25;;;;;;;;;3.00;1.00;;;;;17.12;100.00;100354.66;2062784;28;46453;-57
2023/10/23 04:35:25;;;;;;;;;1.33;1.33;;;;;17.11;100.00;100350.22;2063328;28;46231;-56
2023/10/23 04:36:26;;;;;;;;;2.33;2.00;;;;;17.09;100.00;100346.78;2062733;28;46394;-56
2023/10/23 04:37:26;;;;;;;;;1.67;1.67;;;;;17.11;100.00;100351.09;2063428;28;46584;-56
2023/10/23 04:38:26;;;;;;;;;1.67;1.67;;;;;17.12;100.00;100347.47;2063015;28;46189;-57
2023/10/23 04:39:27;;;;;;;;;0.33;0.33;;;;;17.11;100.00;100351.09;2063092;28;46385;-57